sensor_id;sensor_type;location;lat;lon;timestamp;P1;durP1;ratioP1;P2;durP2;ratioP2
31482;SDS011;18103;52.246;8.052;2023-07-08T00:00:42;5.37;;;2.00;;
31482;SDS011;18103;52.246;8.052;2023-07-08T00:03:10;6.10;;;1.83;;
31482;SDS011;18103;52.246;8.052;2023-07-08T00:05:36;3.00;;;1.73;;
31482;SDS011;18103;52.246;8.052;2023-07-08T00:08:02;3.97;;;1.67;;
31482;SDS011;18103;52.246;8.052;2023-07-08T00:10:28;4.77;;;1.97;;
31482;SDS011;18103;52.246;8.052;2023-07-08T00:12:54;3.67;;;2.00;;
31482;SDS011;18103;52.246;8.052;2023-07-08T00:15:24;6.20;;;2.07;;
31482;SDS011;18103;52.246;8.052;2023-07-08T00:17:54;3.83;;;1.70;;
31482;SDS011;18103;52.246;8.052;2023-07-08T00:20:32;3.23;;;2.23;;
31482;SDS011;18103;52.246;8.052;2023-07-08T00:23:04;3.20;;;2.17;;
31482;SDS011;18103;52.246;8.052;2023-07-08T00:25:32;6.77;;;1.67;;
31482;SDS011;18103;52.246;8.052;2023-07-08T00:27:58;5.53;;;2.10;;
31482;SDS011;18103;52.246;8.052;2023-07-08T00:30:25;4.23;;;2.00;;
31482;SDS011;18103;52.246;8.052;2023-07-08T00:32:57;4.37;;;2.60;;
31482;SDS011;18103;52.246;8.052;2023-07-08T00:35:33;4.40;;;1.90;;
31482;SDS011;18103;52.246;8.052;2023-07-08T00:38:15;4.90;;;2.23;;
31482;SDS011;18103;52.246;8.052;2023-07-08T00:43:40;7.77;;;2.23;;
31482;SDS011;18103;52.246;8.052;2023-07-08T00:52:18;3.30;;;2.00;;
31482;SDS011;18103;52.246;8.052;2023-07-08T00:54:53;5.37;;;2.50;;
31482;SDS011;18103;52.246;8.052;2023-07-08T00:57:22;3.57;;;1.70;;
31482;SDS011;18103;52.246;8.052;2023-07-08T00:59:56;3.90;;;2.20;;
31482;SDS011;18103;52.246;8.052;2023-07-08T01:02:29;4.47;;;1.87;;
31482;SDS011;18103;52.246;8.052;2023-07-08T01:07:54;6.63;;;1.87;;
31482;SDS011;18103;52.246;8.052;2023-07-08T01:10:37;4.73;;;2.00;;
31482;SDS011;18103;52.246;8.052;2023-07-08T01:13:11;4.17;;;2.20;;
31482;SDS011;18103;52.246;8.052;2023-07-08T01:15:42;4.60;;;2.73;;
31482;SDS011;18103;52.246;8.052;2023-07-08T01:18:11;3.07;;;1.90;;
31482;SDS011;18103;52.246;8.052;2023-07-08T01:20:37;5.10;;;2.33;;
31482;SDS011;18103;52.246;8.052;2023-07-08T01:23:04;4.90;;;1.87;;
31482;SDS011;18103;52.246;8.052;2023-07-08T01:25:30;2.80;;;2.00;;
31482;SDS011;18103;52.246;8.052;2023-07-08T01:27:56;8.17;;;2.20;;
31482;SDS011;18103;52.246;8.052;2023-07-08T01:30:22;4.30;;;2.57;;
31482;SDS011;18103;52.246;8.052;2023-07-08T01:32:48;6.53;;;2.37;;
31482;SDS011;18103;52.246;8.052;2023-07-08T01:35:19;4.53;;;2.20;;
31482;SDS011;18103;52.246;8.052;2023-07-08T01:37:49;2.70;;;2.20;;
31482;SDS011;18103;52.246;8.052;2023-07-08T01:42:53;3.27;;;1.90;;
31482;SDS011;18103;52.246;8.052;2023-07-08T01:45:19;5.73;;;1.97;;
31482;SDS011;18103;52.246;8.052;2023-07-08T01:47:53;8.27;;;1.97;;
31482;SDS011;18103;52.246;8.052;2023-07-08T01:50:23;3.40;;;2.33;;
31482;SDS011;18103;52.246;8.052;2023-07-08T01:52:53;3.77;;;2.30;;
31482;SDS011;18103;52.246;8.052;2023-07-08T01:55:25;4.20;;;1.90;;
31482;SDS011;18103;52.246;8.052;2023-07-08T01:57:54;4.70;;;2.43;;
31482;SDS011;18103;52.246;8.052;2023-07-08T02:00:19;4.13;;;2.17;;
31482;SDS011;18103;52.246;8.052;2023-07-08T02:02:46;4.70;;;1.87;;
31482;SDS011;18103;52.246;8.052;2023-07-08T02:05:12;2.67;;;2.20;;
31482;SDS011;18103;52.246;8.052;2023-07-08T02:07:37;4.23;;;2.57;;
31482;SDS011;18103;52.246;8.052;2023-07-08T02:10:03;6.43;;;2.67;;
31482;SDS011;18103;52.246;8.052;2023-07-08T02:12:29;3.97;;;2.00;;
31482;SDS011;18103;52.246;8.052;2023-07-08T02:14:54;4.87;;;2.00;;
31482;SDS011;18103;52.246;8.052;2023-07-08T02:17:19;6.97;;;2.47;;
31482;SDS011;18103;52.246;8.052;2023-07-08T02:19:45;2.90;;;2.13;;
31482;SDS011;18103;52.246;8.052;2023-07-08T02:22:13;4.97;;;2.50;;
31482;SDS011;18103;52.246;8.052;2023-07-08T02:24:38;2.73;;;1.83;;
31482;SDS011;18103;52.246;8.052;2023-07-08T02:27:04;3.60;;;2.30;;
31482;SDS011;18103;52.246;8.052;2023-07-08T02:29:29;3.20;;;2.17;;
31482;SDS011;18103;52.246;8.052;2023-07-08T02:32:00;4.17;;;1.90;;
31482;SDS011;18103;52.246;8.052;2023-07-08T02:34:28;2.90;;;1.77;;
31482;SDS011;18103;52.246;8.052;2023-07-08T02:36:56;4.00;;;2.00;;
31482;SDS011;18103;52.246;8.052;2023-07-08T02:39:21;4.20;;;2.27;;
31482;SDS011;18103;52.246;8.052;2023-07-08T02:41:47;3.43;;;1.90;;
31482;SDS011;18103;52.246;8.052;2023-07-08T02:44:12;3.10;;;2.10;;
31482;SDS011;18103;52.246;8.052;2023-07-08T02:46:41;6.20;;;1.90;;
31482;SDS011;18103;52.246;8.052;2023-07-08T02:49:06;7.97;;;2.40;;
31482;SDS011;18103;52.246;8.052;2023-07-08T02:51:32;3.70;;;2.00;;
31482;SDS011;18103;52.246;8.052;2023-07-08T02:54:00;6.97;;;2.27;;
31482;SDS011;18103;52.246;8.052;2023-07-08T02:56:25;4.27;;;2.20;;
31482;SDS011;18103;52.246;8.052;2023-07-08T02:58:51;4.70;;;2.17;;
31482;SDS011;18103;52.246;8.052;2023-07-08T03:01:17;4.30;;;2.47;;
31482;SDS011;18103;52.246;8.052;2023-07-08T03:03:48;7.43;;;2.13;;
31482;SDS011;18103;52.246;8.052;2023-07-08T03:06:16;3.57;;;2.10;;
31482;SDS011;18103;52.246;8.052;2023-07-08T03:08:41;4.77;;;2.87;;
31482;SDS011;18103;52.246;8.052;2023-07-08T03:11:07;3.50;;;2.70;;
31482;SDS011;18103;52.246;8.052;2023-07-08T03:13:33;4.23;;;2.40;;
31482;SDS011;18103;52.246;8.052;2023-07-08T03:16:02;3.47;;;2.10;;
31482;SDS011;18103;52.246;8.052;2023-07-08T03:18:40;4.17;;;2.20;;
31482;SDS011;18103;52.246;8.052;2023-07-08T03:21:11;4.43;;;2.63;;
31482;SDS011;18103;52.246;8.052;2023-07-08T03:23:38;4.03;;;2.40;;
31482;SDS011;18103;52.246;8.052;2023-07-08T03:26:06;5.67;;;2.17;;
31482;SDS011;18103;52.246;8.052;2023-07-08T03:28:37;5.37;;;2.63;;
31482;SDS011;18103;52.246;8.052;2023-07-08T03:31:03;4.63;;;2.13;;
31482;SDS011;18103;52.246;8.052;2023-07-08T03:33:33;3.37;;;2.23;;
31482;SDS011;18103;52.246;8.052;2023-07-08T03:36:01;3.60;;;2.17;;
31482;SDS011;18103;52.246;8.052;2023-07-08T03:38:27;3.07;;;2.20;;
31482;SDS011;18103;52.246;8.052;2023-07-08T03:40:55;3.07;;;2.40;;
31482;SDS011;18103;52.246;8.052;2023-07-08T03:43:22;5.03;;;2.80;;
31482;SDS011;18103;52.246;8.052;2023-07-08T03:45:47;5.17;;;2.40;;
31482;SDS011;18103;52.246;8.052;2023-07-08T03:48:13;8.63;;;2.17;;
31482;SDS011;18103;52.246;8.052;2023-07-08T03:50:38;5.10;;;2.80;;
31482;SDS011;18103;52.246;8.052;2023-07-08T03:53:04;4.60;;;2.40;;
31482;SDS011;18103;52.246;8.052;2023-07-08T03:55:32;7.93;;;2.57;;
31482;SDS011;18103;52.246;8.052;2023-07-08T03:57:59;4.27;;;2.60;;
31482;SDS011;18103;52.246;8.052;2023-07-08T04:00:24;3.73;;;2.30;;
31482;SDS011;18103;52.246;8.052;2023-07-08T04:02:50;4.43;;;2.47;;
31482;SDS011;18103;52.246;8.052;2023-07-08T04:05:16;6.33;;;2.50;;
31482;SDS011;18103;52.246;8.052;2023-07-08T04:07:44;3.87;;;2.60;;
31482;SDS011;18103;52.246;8.052;2023-07-08T04:10:12;5.63;;;2.53;;
31482;SDS011;18103;52.246;8.052;2023-07-08T04:12:41;5.93;;;2.53;;
31482;SDS011;18103;52.246;8.052;2023-07-08T04:15:09;5.87;;;2.60;;
31482;SDS011;18103;52.246;8.052;2023-07-08T04:17:37;6.67;;;2.80;;
31482;SDS011;18103;52.246;8.052;2023-07-08T04:20:13;4.57;;;2.60;;
31482;SDS011;18103;52.246;8.052;2023-07-08T04:22:43;8.17;;;3.13;;
31482;SDS011;18103;52.246;8.052;2023-07-08T04:25:09;3.33;;;2.43;;
31482;SDS011;18103;52.246;8.052;2023-07-08T04:27:39;4.03;;;2.33;;
31482;SDS011;18103;52.246;8.052;2023-07-08T04:30:05;9.33;;;2.90;;
31482;SDS011;18103;52.246;8.052;2023-07-08T04:32:31;3.60;;;2.73;;
31482;SDS011;18103;52.246;8.052;2023-07-08T04:34:56;4.53;;;2.60;;
31482;SDS011;18103;52.246;8.052;2023-07-08T04:37:24;5.73;;;2.70;;
31482;SDS011;18103;52.246;8.052;2023-07-08T04:39:52;5.30;;;2.80;;
31482;SDS011;18103;52.246;8.052;2023-07-08T04:42:17;3.37;;;2.33;;
31482;SDS011;18103;52.246;8.052;2023-07-08T04:44:43;5.30;;;2.90;;
31482;SDS011;18103;52.246;8.052;2023-07-08T04:47:09;4.80;;;2.70;;
31482;SDS011;18103;52.246;8.052;2023-07-08T04:49:38;3.60;;;2.60;;
31482;SDS011;18103;52.246;8.052;2023-07-08T04:52:08;7.10;;;3.33;;
31482;SDS011;18103;52.246;8.052;2023-07-08T04:54:38;5.77;;;2.83;;
31482;SDS011;18103;52.246;8.052;2023-07-08T04:57:05;3.40;;;2.37;;
31482;SDS011;18103;52.246;8.052;2023-07-08T04:59:34;6.50;;;2.60;;
31482;SDS011;18103;52.246;8.052;2023-07-08T05:02:02;2.83;;;2.43;;
31482;SDS011;18103;52.246;8.052;2023-07-08T05:04:27;5.23;;;2.93;;
31482;SDS011;18103;52.246;8.052;2023-07-08T05:06:55;5.00;;;2.20;;
31482;SDS011;18103;52.246;8.052;2023-07-08T05:09:22;4.77;;;2.70;;
31482;SDS011;18103;52.246;8.052;2023-07-08T05:11:50;4.47;;;2.50;;
31482;SDS011;18103;52.246;8.052;2023-07-08T05:14:16;3.63;;;2.43;;
31482;SDS011;18103;52.246;8.052;2023-07-08T05:16:44;9.00;;;3.03;;
31482;SDS011;18103;52.246;8.052;2023-07-08T05:19:09;4.53;;;2.70;;
31482;SDS011;18103;52.246;8.052;2023-07-08T05:21:35;4.77;;;3.07;;
31482;SDS011;18103;52.246;8.052;2023-07-08T05:24:03;4.37;;;2.37;;
31482;SDS011;18103;52.246;8.052;2023-07-08T05:26:32;12.97;;;3.07;;
31482;SDS011;18103;52.246;8.052;2023-07-08T05:29:00;5.23;;;2.87;;
31482;SDS011;18103;52.246;8.052;2023-07-08T05:31:26;7.50;;;3.17;;
31482;SDS011;18103;52.246;8.052;2023-07-08T05:33:51;5.93;;;2.60;;
31482;SDS011;18103;52.246;8.052;2023-07-08T05:36:19;4.83;;;2.77;;
31482;SDS011;18103;52.246;8.052;2023-07-08T05:38:45;5.57;;;2.60;;
31482;SDS011;18103;52.246;8.052;2023-07-08T05:41:10;9.53;;;2.80;;
31482;SDS011;18103;52.246;8.052;2023-07-08T05:43:37;2.30;;;1.97;;
31482;SDS011;18103;52.246;8.052;2023-07-08T05:46:03;8.67;;;2.17;;
31482;SDS011;18103;52.246;8.052;2023-07-08T05:48:30;4.17;;;2.63;;
31482;SDS011;18103;52.246;8.052;2023-07-08T05:50:56;5.87;;;3.00;;
31482;SDS011;18103;52.246;8.052;2023-07-08T05:53:22;4.80;;;2.40;;
31482;SDS011;18103;52.246;8.052;2023-07-08T05:55:47;4.47;;;2.00;;
31482;SDS011;18103;52.246;8.052;2023-07-08T05:58:18;4.83;;;2.07;;
31482;SDS011;18103;52.246;8.052;2023-07-08T06:00:45;6.77;;;2.30;;
31482;SDS011;18103;52.246;8.052;2023-07-08T06:03:13;4.50;;;2.10;;
31482;SDS011;18103;52.246;8.052;2023-07-08T06:05:38;4.10;;;2.40;;
31482;SDS011;18103;52.246;8.052;2023-07-08T06:08:07;3.17;;;2.13;;
31482;SDS011;18103;52.246;8.052;2023-07-08T06:10:40;6.00;;;2.87;;
31482;SDS011;18103;52.246;8.052;2023-07-08T06:13:09;4.30;;;2.37;;
31482;SDS011;18103;52.246;8.052;2023-07-08T06:15:36;5.57;;;2.37;;
31482;SDS011;18103;52.246;8.052;2023-07-08T06:18:01;3.03;;;2.13;;
31482;SDS011;18103;52.246;8.052;2023-07-08T06:20:28;6.10;;;2.97;;
31482;SDS011;18103;52.246;8.052;2023-07-08T06:22:56;4.37;;;1.93;;
31482;SDS011;18103;52.246;8.052;2023-07-08T06:25:24;2.47;;;1.73;;
31482;SDS011;18103;52.246;8.052;2023-07-08T06:27:49;4.27;;;1.83;;
31482;SDS011;18103;52.246;8.052;2023-07-08T06:30:15;3.67;;;2.10;;
31482;SDS011;18103;52.246;8.052;2023-07-08T06:32:40;3.63;;;2.30;;
31482;SDS011;18103;52.246;8.052;2023-07-08T06:35:05;8.30;;;1.80;;
31482;SDS011;18103;52.246;8.052;2023-07-08T06:37:31;4.47;;;2.27;;
31482;SDS011;18103;52.246;8.052;2023-07-08T06:39:56;3.63;;;2.00;;
31482;SDS011;18103;52.246;8.052;2023-07-08T06:42:22;3.97;;;1.97;;
31482;SDS011;18103;52.246;8.052;2023-07-08T06:44:52;4.17;;;2.17;;
31482;SDS011;18103;52.246;8.052;2023-07-08T06:47:20;3.07;;;1.80;;
31482;SDS011;18103;52.246;8.052;2023-07-08T06:49:47;8.63;;;1.93;;
31482;SDS011;18103;52.246;8.052;2023-07-08T06:52:15;4.03;;;1.83;;
31482;SDS011;18103;52.246;8.052;2023-07-08T06:54:40;7.13;;;2.53;;
31482;SDS011;18103;52.246;8.052;2023-07-08T06:57:06;4.93;;;2.17;;
31482;SDS011;18103;52.246;8.052;2023-07-08T06:59:34;3.87;;;2.10;;
31482;SDS011;18103;52.246;8.052;2023-07-08T07:01:59;4.63;;;1.80;;
31482;SDS011;18103;52.246;8.052;2023-07-08T07:04:27;3.63;;;1.80;;
31482;SDS011;18103;52.246;8.052;2023-07-08T07:06:57;4.07;;;1.70;;
31482;SDS011;18103;52.246;8.052;2023-07-08T07:09:22;4.77;;;2.63;;
31482;SDS011;18103;52.246;8.052;2023-07-08T07:11:48;8.40;;;1.80;;
31482;SDS011;18103;52.246;8.052;2023-07-08T07:14:16;3.13;;;1.83;;
31482;SDS011;18103;52.246;8.052;2023-07-08T07:16:42;6.20;;;2.00;;
31482;SDS011;18103;52.246;8.052;2023-07-08T07:19:07;5.07;;;1.90;;
31482;SDS011;18103;52.246;8.052;2023-07-08T07:21:35;2.77;;;1.90;;
31482;SDS011;18103;52.246;8.052;2023-07-08T07:24:00;5.57;;;2.20;;
31482;SDS011;18103;52.246;8.052;2023-07-08T07:26:29;3.00;;;1.63;;
31482;SDS011;18103;52.246;8.052;2023-07-08T07:28:55;3.80;;;1.90;;
31482;SDS011;18103;52.246;8.052;2023-07-08T07:31:20;3.40;;;2.00;;
31482;SDS011;18103;52.246;8.052;2023-07-08T07:33:48;4.73;;;2.13;;
31482;SDS011;18103;52.246;8.052;2023-07-08T07:36:13;2.57;;;1.70;;
31482;SDS011;18103;52.246;8.052;2023-07-08T07:38:39;7.30;;;2.90;;
31482;SDS011;18103;52.246;8.052;2023-07-08T07:41:04;4.83;;;2.00;;
31482;SDS011;18103;52.246;8.052;2023-07-08T07:43:32;5.33;;;2.43;;
31482;SDS011;18103;52.246;8.052;2023-07-08T07:46:01;4.40;;;2.13;;
31482;SDS011;18103;52.246;8.052;2023-07-08T07:48:26;2.77;;;2.10;;
31482;SDS011;18103;52.246;8.052;2023-07-08T07:50:54;13.43;;;2.60;;
31482;SDS011;18103;52.246;8.052;2023-07-08T07:53:19;8.13;;;2.47;;
31482;SDS011;18103;52.246;8.052;2023-07-08T07:55:47;5.00;;;2.20;;
31482;SDS011;18103;52.246;8.052;2023-07-08T07:58:22;5.13;;;2.00;;
31482;SDS011;18103;52.246;8.052;2023-07-08T08:00:48;3.77;;;2.17;;
31482;SDS011;18103;52.246;8.052;2023-07-08T08:03:13;5.23;;;2.30;;
31482;SDS011;18103;52.246;8.052;2023-07-08T08:05:41;3.60;;;2.13;;
31482;SDS011;18103;52.246;8.052;2023-07-08T08:08:09;6.27;;;2.53;;
31482;SDS011;18103;52.246;8.052;2023-07-08T08:10:37;14.27;;;2.50;;
31482;SDS011;18103;52.246;8.052;2023-07-08T08:13:03;5.73;;;2.20;;
31482;SDS011;18103;52.246;8.052;2023-07-08T08:15:28;3.07;;;2.00;;
31482;SDS011;18103;52.246;8.052;2023-07-08T08:17:56;3.17;;;1.77;;
31482;SDS011;18103;52.246;8.052;2023-07-08T08:20:24;3.47;;;1.87;;
31482;SDS011;18103;52.246;8.052;2023-07-08T08:22:50;4.10;;;2.00;;
31482;SDS011;18103;52.246;8.052;2023-07-08T08:25:16;4.73;;;2.40;;
31482;SDS011;18103;52.246;8.052;2023-07-08T08:27:43;3.03;;;2.10;;
31482;SDS011;18103;52.246;8.052;2023-07-08T08:30:09;4.37;;;2.50;;
31482;SDS011;18103;52.246;8.052;2023-07-08T08:32:37;3.90;;;2.50;;
31482;SDS011;18103;52.246;8.052;2023-07-08T08:35:03;4.67;;;2.20;;
31482;SDS011;18103;52.246;8.052;2023-07-08T08:37:31;4.47;;;2.13;;
31482;SDS011;18103;52.246;8.052;2023-07-08T08:39:57;3.23;;;2.43;;
31482;SDS011;18103;52.246;8.052;2023-07-08T08:42:39;12.87;;;2.50;;
31482;SDS011;18103;52.246;8.052;2023-07-08T08:45:07;7.30;;;2.23;;
31482;SDS011;18103;52.246;8.052;2023-07-08T08:47:39;7.17;;;2.20;;
31482;SDS011;18103;52.246;8.052;2023-07-08T08:52:42;3.37;;;2.30;;
31482;SDS011;18103;52.246;8.052;2023-07-08T08:55:12;3.47;;;2.47;;
31482;SDS011;18103;52.246;8.052;2023-07-08T09:00:11;5.93;;;3.67;;
31482;SDS011;18103;52.246;8.052;2023-07-08T09:05:33;8.17;;;2.20;;
31482;SDS011;18103;52.246;8.052;2023-07-08T09:08:04;5.30;;;2.63;;
31482;SDS011;18103;52.246;8.052;2023-07-08T09:10:57;4.00;;;2.33;;
31482;SDS011;18103;52.246;8.052;2023-07-08T09:13:26;5.17;;;2.40;;
31482;SDS011;18103;52.246;8.052;2023-07-08T09:27:00;9.57;;;2.57;;
31482;SDS011;18103;52.246;8.052;2023-07-08T09:29:27;4.83;;;2.60;;
31482;SDS011;18103;52.246;8.052;2023-07-08T09:31:52;4.73;;;2.60;;
31482;SDS011;18103;52.246;8.052;2023-07-08T09:34:19;7.37;;;2.57;;
31482;SDS011;18103;52.246;8.052;2023-07-08T09:36:50;4.20;;;2.30;;
31482;SDS011;18103;52.246;8.052;2023-07-08T09:39:19;2.70;;;2.30;;
31482;SDS011;18103;52.246;8.052;2023-07-08T09:41:46;4.57;;;2.37;;
31482;SDS011;18103;52.246;8.052;2023-07-08T09:46:42;4.87;;;3.20;;
31482;SDS011;18103;52.246;8.052;2023-07-08T09:51:56;3.93;;;2.53;;
31482;SDS011;18103;52.246;8.052;2023-07-08T09:54:22;5.43;;;2.80;;
31482;SDS011;18103;52.246;8.052;2023-07-08T09:56:59;7.77;;;4.60;;
31482;SDS011;18103;52.246;8.052;2023-07-08T09:59:29;15.93;;;10.70;;
31482;SDS011;18103;52.246;8.052;2023-07-08T10:02:09;6.93;;;3.37;;
31482;SDS011;18103;52.246;8.052;2023-07-08T10:04:44;4.53;;;2.90;;
31482;SDS011;18103;52.246;8.052;2023-07-08T10:07:16;7.77;;;2.63;;
31482;SDS011;18103;52.246;8.052;2023-07-08T10:09:42;3.70;;;2.30;;
31482;SDS011;18103;52.246;8.052;2023-07-08T10:12:08;4.80;;;3.10;;
31482;SDS011;18103;52.246;8.052;2023-07-08T10:14:45;12.10;;;3.77;;
31482;SDS011;18103;52.246;8.052;2023-07-08T10:17:15;4.53;;;2.90;;
31482;SDS011;18103;52.246;8.052;2023-07-08T10:19:43;3.37;;;2.50;;
31482;SDS011;18103;52.246;8.052;2023-07-08T10:22:52;4.90;;;2.50;;
31482;SDS011;18103;52.246;8.052;2023-07-08T10:35:44;3.43;;;2.20;;
31482;SDS011;18103;52.246;8.052;2023-07-08T10:50:23;5.37;;;3.00;;
31482;SDS011;18103;52.246;8.052;2023-07-08T10:55:43;6.70;;;3.33;;
31482;SDS011;18103;52.246;8.052;2023-07-08T11:01:03;5.73;;;2.90;;
31482;SDS011;18103;52.246;8.052;2023-07-08T11:09:05;5.77;;;2.97;;
31482;SDS011;18103;52.246;8.052;2023-07-08T11:14:29;7.23;;;3.33;;
31482;SDS011;18103;52.246;8.052;2023-07-08T11:17:18;7.37;;;3.43;;
31482;SDS011;18103;52.246;8.052;2023-07-08T11:20:34;8.80;;;3.27;;
31482;SDS011;18103;52.246;8.052;2023-07-08T11:22:42;3.97;;;3.00;;
31482;SDS011;18103;52.246;8.052;2023-07-08T11:25:18;6.37;;;3.57;;
31482;SDS011;18103;52.246;8.052;2023-07-08T11:27:49;5.63;;;3.37;;
31482;SDS011;18103;52.246;8.052;2023-07-08T11:30:23;8.67;;;3.53;;
31482;SDS011;18103;52.246;8.052;2023-07-08T11:32:54;4.90;;;3.17;;
31482;SDS011;18103;52.246;8.052;2023-07-08T11:35:44;6.43;;;3.30;;
31482;SDS011;18103;52.246;8.052;2023-07-08T11:38:16;6.07;;;3.47;;
31482;SDS011;18103;52.246;8.052;2023-07-08T11:43:37;5.88;;;3.70;;
31482;SDS011;18103;52.246;8.052;2023-07-08T11:46:12;7.57;;;3.90;;
31482;SDS011;18103;52.246;8.052;2023-07-08T11:48:47;5.30;;;3.22;;
31482;SDS011;18103;52.246;8.052;2023-07-08T11:51:19;6.73;;;3.87;;
31482;SDS011;18103;52.246;8.052;2023-07-08T11:53:49;3.72;;;3.05;;
31482;SDS011;18103;52.246;8.052;2023-07-08T11:56:25;6.70;;;3.97;;
31482;SDS011;18103;52.246;8.052;2023-07-08T11:59:29;5.47;;;3.60;;
31482;SDS011;18103;52.246;8.052;2023-07-08T12:02:11;5.88;;;3.25;;
31482;SDS011;18103;52.246;8.052;2023-07-08T12:04:59;4.47;;;3.38;;
31482;SDS011;18103;52.246;8.052;2023-07-08T12:07:31;13.43;;;3.53;;
31482;SDS011;18103;52.246;8.052;2023-07-08T12:10:10;4.72;;;3.58;;
31482;SDS011;18103;52.246;8.052;2023-07-08T12:12:37;6.93;;;3.47;;
31482;SDS011;18103;52.246;8.052;2023-07-08T12:17:50;5.40;;;4.13;;
31482;SDS011;18103;52.246;8.052;2023-07-08T12:22:47;5.50;;;3.53;;
31482;SDS011;18103;52.246;8.052;2023-07-08T12:25:14;13.75;;;3.80;;
31482;SDS011;18103;52.246;8.052;2023-07-08T12:27:42;4.03;;;3.05;;
31482;SDS011;18103;52.246;8.052;2023-07-08T12:30:09;8.98;;;3.60;;
31482;SDS011;18103;52.246;8.052;2023-07-08T12:32:36;9.63;;;4.30;;
31482;SDS011;18103;52.246;8.052;2023-07-08T12:35:05;5.38;;;3.17;;
31482;SDS011;18103;52.246;8.052;2023-07-08T12:37:45;6.13;;;3.97;;
31482;SDS011;18103;52.246;8.052;2023-07-08T12:40:11;6.38;;;3.35;;
31482;SDS011;18103;52.246;8.052;2023-07-08T12:42:38;8.90;;;4.55;;
31482;SDS011;18103;52.246;8.052;2023-07-08T12:45:16;7.72;;;4.03;;
31482;SDS011;18103;52.246;8.052;2023-07-08T12:47:43;9.02;;;3.88;;
31482;SDS011;18103;52.246;8.052;2023-07-08T12:50:10;8.00;;;4.68;;
31482;SDS011;18103;52.246;8.052;2023-07-08T12:52:36;8.70;;;4.30;;
31482;SDS011;18103;52.246;8.052;2023-07-08T12:55:05;6.28;;;3.83;;
31482;SDS011;18103;52.246;8.052;2023-07-08T12:57:33;6.22;;;3.97;;
31482;SDS011;18103;52.246;8.052;2023-07-08T13:00:01;5.93;;;4.00;;
31482;SDS011;18103;52.246;8.052;2023-07-08T13:02:31;6.47;;;4.40;;
31482;SDS011;18103;52.246;8.052;2023-07-08T13:04:59;7.53;;;4.13;;
31482;SDS011;18103;52.246;8.052;2023-07-08T13:07:36;7.38;;;3.90;;
31482;SDS011;18103;52.246;8.052;2023-07-08T13:10:07;7.85;;;3.90;;
31482;SDS011;18103;52.246;8.052;2023-07-08T13:12:44;8.50;;;4.40;;
31482;SDS011;18103;52.246;8.052;2023-07-08T13:15:17;9.98;;;4.35;;
31482;SDS011;18103;52.246;8.052;2023-07-08T13:17:46;6.40;;;3.95;;
31482;SDS011;18103;52.246;8.052;2023-07-08T13:20:13;6.72;;;4.53;;
31482;SDS011;18103;52.246;8.052;2023-07-08T13:22:41;6.90;;;4.70;;
31482;SDS011;18103;52.246;8.052;2023-07-08T13:25:18;7.07;;;4.15;;
31482;SDS011;18103;52.246;8.052;2023-07-08T13:27:58;8.13;;;3.42;;
31482;SDS011;18103;52.246;8.052;2023-07-08T13:30:29;7.00;;;4.15;;
31482;SDS011;18103;52.246;8.052;2023-07-08T13:32:58;12.23;;;4.15;;
31482;SDS011;18103;52.246;8.052;2023-07-08T13:35:27;6.03;;;4.32;;
31482;SDS011;18103;52.246;8.052;2023-07-08T13:38:01;6.32;;;4.20;;
31482;SDS011;18103;52.246;8.052;2023-07-08T13:40:27;10.25;;;3.78;;
31482;SDS011;18103;52.246;8.052;2023-07-08T13:42:54;7.50;;;4.22;;
31482;SDS011;18103;52.246;8.052;2023-07-08T13:45:28;6.07;;;3.95;;
31482;SDS011;18103;52.246;8.052;2023-07-08T13:50:44;5.93;;;4.28;;
31482;SDS011;18103;52.246;8.052;2023-07-08T13:53:22;12.32;;;4.43;;
31482;SDS011;18103;52.246;8.052;2023-07-08T13:55:56;6.20;;;3.90;;
31482;SDS011;18103;52.246;8.052;2023-07-08T13:58:25;8.35;;;4.30;;
31482;SDS011;18103;52.246;8.052;2023-07-08T14:00:54;7.90;;;4.50;;
31482;SDS011;18103;52.246;8.052;2023-07-08T14:03:20;8.75;;;5.07;;
31482;SDS011;18103;52.246;8.052;2023-07-08T14:05:46;8.32;;;4.35;;
31482;SDS011;18103;52.246;8.052;2023-07-08T14:08:14;6.45;;;4.05;;
31482;SDS011;18103;52.246;8.052;2023-07-08T14:10:41;7.82;;;4.55;;
31482;SDS011;18103;52.246;8.052;2023-07-08T14:13:07;9.27;;;4.38;;
31482;SDS011;18103;52.246;8.052;2023-07-08T14:15:33;8.52;;;4.18;;
31482;SDS011;18103;52.246;8.052;2023-07-08T14:18:01;9.70;;;4.60;;
31482;SDS011;18103;52.246;8.052;2023-07-08T14:20:29;6.45;;;4.30;;
31482;SDS011;18103;52.246;8.052;2023-07-08T14:22:55;7.53;;;4.30;;
31482;SDS011;18103;52.246;8.052;2023-07-08T14:25:21;7.70;;;4.07;;
31482;SDS011;18103;52.246;8.052;2023-07-08T14:27:49;7.38;;;4.68;;
31482;SDS011;18103;52.246;8.052;2023-07-08T14:30:14;7.35;;;4.40;;
31482;SDS011;18103;52.246;8.052;2023-07-08T14:32:41;8.05;;;4.38;;
31482;SDS011;18103;52.246;8.052;2023-07-08T14:37:34;7.70;;;4.63;;
31482;SDS011;18103;52.246;8.052;2023-07-08T14:40:16;6.47;;;4.18;;
31482;SDS011;18103;52.246;8.052;2023-07-08T14:42:45;6.03;;;4.60;;
31482;SDS011;18103;52.246;8.052;2023-07-08T14:45:10;6.05;;;4.03;;
31482;SDS011;18103;52.246;8.052;2023-07-08T14:47:36;6.32;;;4.35;;
31482;SDS011;18103;52.246;8.052;2023-07-08T14:50:11;7.40;;;4.35;;
31482;SDS011;18103;52.246;8.052;2023-07-08T14:52:38;6.38;;;4.18;;
31482;SDS011;18103;52.246;8.052;2023-07-08T14:55:07;7.07;;;4.65;;
31482;SDS011;18103;52.246;8.052;2023-07-08T14:57:41;7.70;;;4.00;;
31482;SDS011;18103;52.246;8.052;2023-07-08T15:00:12;9.52;;;4.82;;
31482;SDS011;18103;52.246;8.052;2023-07-08T15:02:43;6.68;;;4.57;;
31482;SDS011;18103;52.246;8.052;2023-07-08T15:05:13;8.32;;;3.97;;
31482;SDS011;18103;52.246;8.052;2023-07-08T15:07:41;6.97;;;4.25;;
31482;SDS011;18103;52.246;8.052;2023-07-08T15:10:07;7.65;;;4.28;;
31482;SDS011;18103;52.246;8.052;2023-07-08T15:12:33;7.72;;;3.72;;
31482;SDS011;18103;52.246;8.052;2023-07-08T15:14:58;5.80;;;4.20;;
31482;SDS011;18103;52.246;8.052;2023-07-08T15:17:24;7.13;;;4.25;;
31482;SDS011;18103;52.246;8.052;2023-07-08T15:19:52;5.70;;;4.25;;
31482;SDS011;18103;52.246;8.052;2023-07-08T15:22:20;10.75;;;4.10;;
31482;SDS011;18103;52.246;8.052;2023-07-08T15:24:45;7.60;;;4.65;;
31482;SDS011;18103;52.246;8.052;2023-07-08T15:27:11;8.88;;;4.72;;
31482;SDS011;18103;52.246;8.052;2023-07-08T15:29:38;8.23;;;4.63;;
31482;SDS011;18103;52.246;8.052;2023-07-08T15:32:04;6.50;;;4.07;;
31482;SDS011;18103;52.246;8.052;2023-07-08T15:34:37;7.97;;;4.30;;
31482;SDS011;18103;52.246;8.052;2023-07-08T15:37:03;8.07;;;4.38;;
31482;SDS011;18103;52.246;8.052;2023-07-08T15:39:30;7.65;;;3.90;;
31482;SDS011;18103;52.246;8.052;2023-07-08T15:41:56;5.75;;;3.95;;
31482;SDS011;18103;52.246;8.052;2023-07-08T15:44:22;6.13;;;4.13;;
31482;SDS011;18103;52.246;8.052;2023-07-08T15:46:47;6.75;;;4.30;;
31482;SDS011;18103;52.246;8.052;2023-07-08T15:49:19;8.18;;;5.35;;
31482;SDS011;18103;52.246;8.052;2023-07-08T15:51:48;9.73;;;5.57;;
31482;SDS011;18103;52.246;8.052;2023-07-08T15:54:17;8.65;;;4.13;;
31482;SDS011;18103;52.246;8.052;2023-07-08T15:56:44;7.72;;;4.18;;
31482;SDS011;18103;52.246;8.052;2023-07-08T15:59:14;5.35;;;4.05;;
31482;SDS011;18103;52.246;8.052;2023-07-08T16:01:44;8.85;;;4.78;;
31482;SDS011;18103;52.246;8.052;2023-07-08T16:04:18;8.35;;;4.70;;
31482;SDS011;18103;52.246;8.052;2023-07-08T16:06:48;7.45;;;4.63;;
31482;SDS011;18103;52.246;8.052;2023-07-08T16:09:16;8.20;;;4.10;;
31482;SDS011;18103;52.246;8.052;2023-07-08T16:11:43;9.63;;;4.22;;
31482;SDS011;18103;52.246;8.052;2023-07-08T16:14:14;8.52;;;4.60;;
31482;SDS011;18103;52.246;8.052;2023-07-08T16:16:43;9.38;;;4.90;;
31482;SDS011;18103;52.246;8.052;2023-07-08T16:19:14;8.52;;;4.63;;
31482;SDS011;18103;52.246;8.052;2023-07-08T16:21:44;6.50;;;3.83;;
31482;SDS011;18103;52.246;8.052;2023-07-08T16:24:14;7.22;;;4.05;;
31482;SDS011;18103;52.246;8.052;2023-07-08T16:26:42;12.57;;;4.22;;